sensor_id;sensor_type;location;lat;lon;timestamp;temperature;humidity
69731;SHT31;56996;48.138;11.538;2022-09-02T12:24:46;23.29;34.56
69731;SHT31;56996;48.138;11.538;2022-09-02T12:27:21;23.35;34.26
69731;SHT31;56996;48.138;11.538;2022-09-02T12:29:49;23.29;34.27
69731;SHT31;56996;48.138;11.538;2022-09-02T12:38:27;23.38;34.44
69731;SHT31;56996;48.138;11.538;2022-09-02T12:49:52;23.57;34.31
69731;SHT31;56996;48.138;11.538;2022-09-02T12:57:52;23.62;34.55
69731;SHT31;56996;48.138;11.538;2022-09-02T13:03:38;23.84;34.58
69731;SHT31;56996;48.138;11.538;2022-09-02T13:21:03;24.13;34.05
69731;SHT31;56996;48.138;11.538;2022-09-02T13:24:22;24.14;33.83
69731;SHT31;56996;48.138;11.538;2022-09-02T13:27:25;24.15;34.09
69731;SHT31;56996;48.138;11.538;2022-09-02T13:30:16;24.13;34.11
69731;SHT31;56996;48.138;11.538;2022-09-02T13:33:22;24.06;34.02
69731;SHT31;56996;48.138;11.538;2022-09-02T13:35:52;24.06;34.00
69731;SHT31;56996;48.138;11.538;2022-09-02T13:38:23;24.03;33.90
69731;SHT31;56996;48.138;11.538;2022-09-02T13:40:52;24.02;33.85
69731;SHT31;56996;48.138;11.538;2022-09-02T13:43:21;24.00;34.24
69731;SHT31;56996;48.138;11.538;2022-09-02T13:45:52;24.08;34.30
69731;SHT31;56996;48.138;11.538;2022-09-02T13:48:26;24.06;34.17
69731;SHT31;56996;48.138;11.538;2022-09-02T13:50:58;24.08;34.31
69731;SHT31;56996;48.138;11.538;2022-09-02T13:53:46;24.15;34.39
69731;SHT31;56996;48.138;11.538;2022-09-02T13:56:36;24.24;34.47
69731;SHT31;56996;48.138;11.538;2022-09-02T13:59:03;24.33;34.25
69731;SHT31;56996;48.138;11.538;2022-09-02T14:01:31;24.32;34.17
69731;SHT31;56996;48.138;11.538;2022-09-02T14:04:05;24.30;34.30
69731;SHT31;56996;48.138;11.538;2022-09-02T14:06:45;24.33;34.12
69731;SHT31;56996;48.138;11.538;2022-09-02T14:09:17;24.33;34.06
69731;SHT31;56996;48.138;11.538;2022-09-02T14:11:49;24.33;34.10
69731;SHT31;56996;48.138;11.538;2022-09-02T14:14:21;24.24;33.83
69731;SHT31;56996;48.138;11.538;2022-09-02T14:16:49;24.15;33.93
69731;SHT31;56996;48.138;11.538;2022-09-02T14:21:49;24.20;34.00
69731;SHT31;56996;48.138;11.538;2022-09-02T14:24:19;24.16;34.21
69731;SHT31;56996;48.138;11.538;2022-09-02T14:27:10;24.18;34.38
69731;SHT31;56996;48.138;11.538;2022-09-02T14:29:46;24.24;34.30
69731;SHT31;56996;48.138;11.538;2022-09-02T14:32:21;24.22;34.38
69731;SHT31;56996;48.138;11.538;2022-09-02T14:35:10;24.19;34.24
69731;SHT31;56996;48.138;11.538;2022-09-02T14:37:51;24.11;34.33
69731;SHT31;56996;48.138;11.538;2022-09-02T14:40:31;24.05;34.40
69731;SHT31;56996;48.138;11.538;2022-09-02T14:43:11;23.92;34.27
69731;SHT31;56996;48.138;11.538;2022-09-02T14:45:47;23.81;34.49
69731;SHT31;56996;48.138;11.538;2022-09-02T14:50:57;23.65;34.42
69731;SHT31;56996;48.138;11.538;2022-09-02T14:53:28;23.67;34.74
69731;SHT31;56996;48.138;11.538;2022-09-02T14:55:55;23.70;34.61
69731;SHT31;56996;48.138;11.538;2022-09-02T14:58:24;23.66;34.48
69731;SHT31;56996;48.138;11.538;2022-09-02T15:00:54;23.52;34.50
69731;SHT31;56996;48.138;11.538;2022-09-02T15:03:26;23.42;34.70
69731;SHT31;56996;48.138;11.538;2022-09-02T15:05:55;23.35;34.87
69731;SHT31;56996;48.138;11.538;2022-09-02T15:08:23;23.34;34.94
69731;SHT31;56996;48.138;11.538;2022-09-02T15:10:51;23.27;34.93
69731;SHT31;56996;48.138;11.538;2022-09-02T15:13:27;23.22;35.03
69731;SHT31;56996;48.138;11.538;2022-09-02T15:15:58;23.16;35.12
69731;SHT31;56996;48.138;11.538;2022-09-02T15:18:25;23.20;35.16
69731;SHT31;56996;48.138;11.538;2022-09-02T15:20:51;23.24;35.09
69731;SHT31;56996;48.138;11.538;2022-09-02T15:23:20;23.26;35.16
69731;SHT31;56996;48.138;11.538;2022-09-02T15:25:47;23.37;34.84
69731;SHT31;56996;48.138;11.538;2022-09-02T15:28:14;23.61;34.47
69731;SHT31;56996;48.138;11.538;2022-09-02T15:30:40;23.81;34.16
69731;SHT31;56996;48.138;11.538;2022-09-02T15:33:07;23.72;34.34
69731;SHT31;56996;48.138;11.538;2022-09-02T15:35:45;23.62;34.50
69731;SHT31;56996;48.138;11.538;2022-09-02T15:38:13;23.46;34.71
69731;SHT31;56996;48.138;11.538;2022-09-02T15:40:39;23.38;34.82
69731;SHT31;56996;48.138;11.538;2022-09-02T15:43:06;23.31;35.01
69731;SHT31;56996;48.138;11.538;2022-09-02T15:45:33;23.18;35.09
69731;SHT31;56996;48.138;11.538;2022-09-02T15:48:00;23.09;35.25
69731;SHT31;56996;48.138;11.538;2022-09-02T15:50:30;23.02;35.31
69731;SHT31;56996;48.138;11.538;2022-09-02T15:52:57;22.97;35.44
69731;SHT31;56996;48.138;11.538;2022-09-02T15:55:23;22.91;35.51
69731;SHT31;56996;48.138;11.538;2022-09-02T15:57:55;22.83;35.61
69731;SHT31;56996;48.138;11.538;2022-09-02T16:00:22;22.74;35.69
69731;SHT31;56996;48.138;11.538;2022-09-02T16:02:53;22.64;35.87
69731;SHT31;56996;48.138;11.538;2022-09-02T16:05:22;22.58;35.96
69731;SHT31;56996;48.138;11.538;2022-09-02T16:07:50;22.51;36.03
69731;SHT31;56996;48.138;11.538;2022-09-02T16:10:20;22.44;36.07
69731;SHT31;56996;48.138;11.538;2022-09-02T16:12:47;22.37;36.18
69731;SHT31;56996;48.138;11.538;2022-09-02T16:15:14;22.30;36.32
69731;SHT31;56996;48.138;11.538;2022-09-02T16:17:41;22.23;36.56
69731;SHT31;56996;48.138;11.538;2022-09-02T16:20:08;22.18;36.66
69731;SHT31;56996;48.138;11.538;2022-09-02T16:22:35;22.14;36.63
69731;SHT31;56996;48.138;11.538;2022-09-02T16:25:02;22.08;36.70
69731;SHT31;56996;48.138;11.538;2022-09-02T16:27:29;22.00;36.80
69731;SHT31;56996;48.138;11.538;2022-09-02T16:30:14;21.97;36.98
69731;SHT31;56996;48.138;11.538;2022-09-02T16:35:13;21.92;37.17
69731;SHT31;56996;48.138;11.538;2022-09-02T16:37:40;21.91;37.19
69731;SHT31;56996;48.138;11.538;2022-09-02T16:40:08;21.90;37.21
69731;SHT31;56996;48.138;11.538;2022-09-02T16:42:35;21.87;37.31
69731;SHT31;56996;48.138;11.538;2022-09-02T16:45:03;21.83;37.47
69731;SHT31;56996;48.138;11.538;2022-09-02T16:47:31;21.80;37.46
69731;SHT31;56996;48.138;11.538;2022-09-02T16:49:59;21.75;37.54
69731;SHT31;56996;48.138;11.538;2022-09-02T16:52:25;21.69;37.74
69731;SHT31;56996;48.138;11.538;2022-09-02T16:54:52;21.63;37.70
69731;SHT31;56996;48.138;11.538;2022-09-02T16:57:19;21.58;37.87
69731;SHT31;56996;48.138;11.538;2022-09-02T16:59:45;21.53;37.94
69731;SHT31;56996;48.138;11.538;2022-09-02T17:02:12;21.48;38.08
69731;SHT31;56996;48.138;11.538;2022-09-02T17:04:39;21.44;38.23
69731;SHT31;56996;48.138;11.538;2022-09-02T17:07:06;21.40;38.32
69731;SHT31;56996;48.138;11.538;2022-09-02T17:09:33;21.38;38.40
69731;SHT31;56996;48.138;11.538;2022-09-02T17:12:00;21.31;38.48
69731;SHT31;56996;48.138;11.538;2022-09-02T17:14:27;21.22;38.62
69731;SHT31;56996;48.138;11.538;2022-09-02T17:16:54;21.17;38.76
69731;SHT31;56996;48.138;11.538;2022-09-02T17:19:21;21.11;38.84
69731;SHT31;56996;48.138;11.538;2022-09-02T17:21:52;21.08;38.98
69731;SHT31;56996;48.138;11.538;2022-09-02T17:24:21;21.03;39.05
69731;SHT31;56996;48.138;11.538;2022-09-02T17:26:57;20.96;39.22
69731;SHT31;56996;48.138;11.538;2022-09-02T17:29:26;20.91;39.41
69731;SHT31;56996;48.138;11.538;2022-09-02T17:32:14;20.86;39.47
69731;SHT31;56996;48.138;11.538;2022-09-02T17:34:42;20.83;39.48
69731;SHT31;56996;48.138;11.538;2022-09-02T17:37:09;20.79;39.63
69731;SHT31;56996;48.138;11.538;2022-09-02T17:39:36;20.74;39.65
69731;SHT31;56996;48.138;11.538;2022-09-02T17:42:03;20.68;39.78
69731;SHT31;56996;48.138;11.538;2022-09-02T17:44:33;20.64;39.86
69731;SHT31;56996;48.138;11.538;2022-09-02T17:47:05;20.57;40.06
69731;SHT31;56996;48.138;11.538;2022-09-02T17:49:35;20.52;40.18
69731;SHT31;56996;48.138;11.538;2022-09-02T17:52:04;20.46;40.38
69731;SHT31;56996;48.138;11.538;2022-09-02T17:54:33;20.41;40.49
69731;SHT31;56996;48.138;11.538;2022-09-02T17:57:02;20.36;40.72
69731;SHT31;56996;48.138;11.538;2022-09-02T18:11:01;20.19;41.65
69731;SHT31;56996;48.138;11.538;2022-09-02T18:28:18;19.86;41.86
69731;SHT31;56996;48.138;11.538;2022-09-02T18:42:24;19.65;42.20
69731;SHT31;56996;48.138;11.538;2022-09-02T18:45:21;19.63;42.28
69731;SHT31;56996;48.138;11.538;2022-09-02T18:47:59;19.57;42.51
69731;SHT31;56996;48.138;11.538;2022-09-02T18:50:33;19.51;42.63
69731;SHT31;56996;48.138;11.538;2022-09-02T18:53:19;19.46;42.73
69731;SHT31;56996;48.138;11.538;2022-09-02T18:55:50;19.43;42.83
69731;SHT31;56996;48.138;11.538;2022-09-02T19:01:15;19.35;43.02
69731;SHT31;56996;48.138;11.538;2022-09-02T19:03:52;19.31;43.03
69731;SHT31;56996;48.138;11.538;2022-09-02T19:06:20;19.27;43.14
69731;SHT31;56996;48.138;11.538;2022-09-02T19:08:57;19.24;43.25
69731;SHT31;56996;48.138;11.538;2022-09-02T19:11:27;19.20;43.49
69731;SHT31;56996;48.138;11.538;2022-09-02T19:16:55;19.13;43.66
69731;SHT31;56996;48.138;11.538;2022-09-02T19:19:23;19.08;43.78
69731;SHT31;56996;48.138;11.538;2022-09-02T19:21:53;19.05;43.80
69731;SHT31;56996;48.138;11.538;2022-09-02T19:24:32;19.02;43.86
69731;SHT31;56996;48.138;11.538;2022-09-02T19:27:14;18.99;43.98
69731;SHT31;56996;48.138;11.538;2022-09-02T19:29:45;18.96;44.05
69731;SHT31;56996;48.138;11.538;2022-09-02T19:32:18;18.94;44.15
69731;SHT31;56996;48.138;11.538;2022-09-02T19:34:53;18.88;44.29
69731;SHT31;56996;48.138;11.538;2022-09-02T19:37:21;18.81;44.52
69731;SHT31;56996;48.138;11.538;2022-09-02T19:39:49;18.77;44.48
69731;SHT31;56996;48.138;11.538;2022-09-02T19:42:19;18.74;44.66
69731;SHT31;56996;48.138;11.538;2022-09-02T19:44:49;18.69;44.81
69731;SHT31;56996;48.138;11.538;2022-09-02T19:47:16;18.68;44.87
69731;SHT31;56996;48.138;11.538;2022-09-02T19:50:03;18.62;45.10
69731;SHT31;56996;48.138;11.538;2022-09-02T19:52:37;18.59;45.18
69731;SHT31;56996;48.138;11.538;2022-09-02T19:55:13;18.58;45.41
69731;SHT31;56996;48.138;11.538;2022-09-02T19:57:43;18.54;45.53
69731;SHT31;56996;48.138;11.538;2022-09-02T20:00:11;18.50;45.62
69731;SHT31;56996;48.138;11.538;2022-09-02T20:02:39;18.45;45.80
69731;SHT31;56996;48.138;11.538;2022-09-02T20:05:10;18.41;46.06
69731;SHT31;56996;48.138;11.538;2022-09-02T20:07:39;18.35;46.01
69731;SHT31;56996;48.138;11.538;2022-09-02T20:10:06;18.32;46.04
69731;SHT31;56996;48.138;11.538;2022-09-02T20:12:34;18.29;46.13
69731;SHT31;56996;48.138;11.538;2022-09-02T20:15:02;18.27;46.31
69731;SHT31;56996;48.138;11.538;2022-09-02T20:17:32;18.23;46.41
69731;SHT31;56996;48.138;11.538;2022-09-02T20:20:02;18.20;46.47
69731;SHT31;56996;48.138;11.538;2022-09-02T20:22:38;18.17;46.49
69731;SHT31;56996;48.138;11.538;2022-09-02T20:25:05;18.16;46.62
69731;SHT31;56996;48.138;11.538;2022-09-02T20:30:39;18.11;46.94
69731;SHT31;56996;48.138;11.538;2022-09-02T20:33:14;18.08;47.01
69731;SHT31;56996;48.138;11.538;2022-09-02T20:42:04;17.99;47.16
69731;SHT31;56996;48.138;11.538;2022-09-02T20:51:04;17.89;47.64
69731;SHT31;56996;48.138;11.538;2022-09-02T20:54:23;17.88;47.61
69731;SHT31;56996;48.138;11.538;2022-09-02T21:02:42;17.79;47.85
69731;SHT31;56996;48.138;11.538;2022-09-02T21:05:18;17.76;48.00
69731;SHT31;56996;48.138;11.538;2022-09-02T21:07:55;17.73;48.08
69731;SHT31;56996;48.138;11.538;2022-09-02T21:10:31;17.69;48.24
69731;SHT31;56996;48.138;11.538;2022-09-02T21:13:09;17.65;48.44
69731;SHT31;56996;48.138;11.538;2022-09-02T21:16:00;17.59;48.53
69731;SHT31;56996;48.138;11.538;2022-09-02T21:18:41;17.55;48.62
69731;SHT31;56996;48.138;11.538;2022-09-02T21:26:54;17.44;49.15
69731;SHT31;56996;48.138;11.538;2022-09-02T21:29:44;17.44;49.14
69731;SHT31;56996;48.138;11.538;2022-09-02T21:32:40;17.44;49.35
69731;SHT31;56996;48.138;11.538;2022-09-02T21:35:39;17.39;49.46
69731;SHT31;56996;48.138;11.538;2022-09-02T22:01:34;17.20;50.24
69731;SHT31;56996;48.138;11.538;2022-09-02T22:07:27;17.22;50.38
69731;SHT31;56996;48.138;11.538;2022-09-02T22:10:12;17.23;50.41
69731;SHT31;56996;48.138;11.538;2022-09-02T22:12:51;17.24;50.50
69731;SHT31;56996;48.138;11.538;2022-09-02T22:15:39;17.26;50.54
69731;SHT31;56996;48.138;11.538;2022-09-02T22:21:16;17.23;50.71
69731;SHT31;56996;48.138;11.538;2022-09-02T22:23:52;17.23;50.73
69731;SHT31;56996;48.138;11.538;2022-09-02T22:32:16;17.11;50.81
69731;SHT31;56996;48.138;11.538;2022-09-02T22:34:59;17.07;50.83
69731;SHT31;56996;48.138;11.538;2022-09-02T22:37:51;17.05;50.90
69731;SHT31;56996;48.138;11.538;2022-09-02T22:40:29;17.04;51.12
69731;SHT31;56996;48.138;11.538;2022-09-02T22:43:01;17.01;51.41
69731;SHT31;56996;48.138;11.538;2022-09-02T22:45:33;16.94;51.86
69731;SHT31;56996;48.138;11.538;2022-09-02T22:48:32;16.89;51.61
69731;SHT31;56996;48.138;11.538;2022-09-02T22:51:25;16.86;51.83
69731;SHT31;56996;48.138;11.538;2022-09-02T22:54:15;16.83;51.85
69731;SHT31;56996;48.138;11.538;2022-09-02T22:59:25;16.84;51.83
69731;SHT31;56996;48.138;11.538;2022-09-02T23:02:22;16.85;51.94
69731;SHT31;56996;48.138;11.538;2022-09-02T23:08:22;16.85;51.96
69731;SHT31;56996;48.138;11.538;2022-09-02T23:22:24;16.77;52.30
69731;SHT31;56996;48.138;11.538;2022-09-02T23:29:03;16.68;52.61
69731;SHT31;56996;48.138;11.538;2022-09-02T23:40:47;16.57;53.10
69731;SHT31;56996;48.138;11.538;2022-09-02T23:43:37;16.54;53.12
